Time;durP1;ratioP1;P1;durP2;ratioP2;P2;SDS_P1;SDS_P2;PMS_P1;PMS_P2;Temp;Humidity;BMP_temperature;BMP_pressure;BME280_temperature;BME280_humidity;BME280_pressure;Samples;Min_cycle;Max_cycle;Signal;HPM_P1;HPM_P2
2023/06/26 00:01:09;;;;;;;12.40;8.48;;;19.10;99.90;;;;;;5076633;28;20717;-88
2023/06/26 00:03:38;;;;;;;11.60;8.68;;;19.10;99.90;;;;;;5076921;28;20274;-88
2023/06/26 00:09:08;;;;;;;12.25;8.80;;;19.10;99.90;;;;;;5053704;28;20226;-88
2023/06/26 00:11:35;;;;;;;12.88;8.85;;;19.00;99.90;;;;;;5056230;28;20203;-88
2023/06/26 00:14:08;;;;;;;10.05;8.88;;;19.10;99.90;;;;;;5056596;28;20191;-87
2023/06/26 00:16:55;;;;;;;11.30;8.93;;;19.10;99.90;;;;;;5056201;28;20215;-88
2023/06/26 00:19:30;;;;;;;11.40;8.75;;;19.00;99.90;;;;;;5056765;28;20217;-87
2023/06/26 00:22:05;;;;;;;10.70;8.88;;;19.20;99.90;;;;;;5057097;28;20678;-88
2023/06/26 00:24:45;;;;;;;11.15;8.07;;;19.10;99.90;;;;;;5057229;28;20190;-88
2023/06/26 00:27:34;;;;;;;12.07;8.55;;;19.10;99.90;;;;;;5057462;28;20664;-87
2023/06/26 00:30:15;;;;;;;9.00;8.02;;;19.10;99.90;;;;;;5056391;28;20540;-88
2023/06/26 00:32:44;;;;;;;10.45;8.32;;;19.10;99.90;;;;;;5056178;28;20218;-88
2023/06/26 00:35:11;;;;;;;10.30;7.55;;;19.10;99.90;;;;;;5055716;28;20223;-88
2023/06/26 00:37:39;;;;;;;9.57;8.15;;;19.20;99.90;;;;;;5057984;28;20298;-87
2023/06/26 00:40:15;;;;;;;8.52;7.40;;;19.10;99.90;;;;;;5078281;28;20194;-88
2023/06/26 00:42:42;;;;;;;8.50;7.60;;;19.10;99.90;;;;;;5078412;28;20194;-89
2023/06/26 00:45:14;;;;;;;8.82;6.97;;;19.10;99.90;;;;;;5077911;28;20219;-88
2023/06/26 00:50:36;;;;;;;12.35;7.97;;;18.90;99.90;;;;;;5049710;28;20206;-88
2023/06/26 00:53:18;;;;;;;10.77;8.45;;;18.50;99.90;;;;;;5076383;28;20205;-87
2023/06/26 00:55:59;;;;;;;9.32;7.45;;;18.50;99.90;;;;;;5067743;28;20226;-87
2023/06/26 01:02:11;;;;;;;10.98;7.78;;;18.60;99.90;;;;;;5063270;28;20671;-88
2023/06/26 01:04:50;;;;;;;9.65;7.93;;;18.90;99.90;;;;;;5062934;28;20213;-88
2023/06/26 01:07:26;;;;;;;7.97;7.18;;;18.70;99.90;;;;;;5067778;28;20313;-88
2023/06/26 01:10:05;;;;;;;13.02;8.60;;;18.80;99.90;;;;;;5063781;28;20650;-88
2023/06/26 01:12:32;;;;;;;10.52;8.68;;;18.50;99.90;;;;;;5074335;28;20297;-87
2023/06/26 01:15:02;;;;;;;13.10;8.95;;;18.50;99.90;;;;;;5074496;28;20281;-88
2023/06/26 01:17:33;;;;;;;10.45;8.13;;;18.50;99.90;;;;;;5067113;28;20256;-87
2023/06/26 01:20:06;;;;;;;10.93;8.43;;;18.70;99.90;;;;;;5060766;28;20202;-87
2023/06/26 01:22:45;;;;;;;12.07;8.40;;;18.70;99.90;;;;;;5075605;28;20207;-89
2023/06/26 01:25:24;;;;;;;9.88;7.40;;;18.70;99.90;;;;;;5069998;28;20276;-88
2023/06/26 01:27:56;;;;;;;9.10;7.80;;;18.80;99.90;;;;;;5055777;28;20222;-87
2023/06/26 01:30:25;;;;;;;13.32;8.52;;;18.60;99.90;;;;;;5055911;28;20226;-87
2023/06/26 01:32:55;;;;;;;9.32;8.00;;;18.70;99.90;;;;;;5056057;28;20217;-88
2023/06/26 01:35:33;;;;;;;10.93;8.25;;;18.50;99.90;;;;;;5057054;28;20227;-87
2023/06/26 01:38:16;;;;;;;10.10;8.35;;;18.40;99.90;;;;;;5075430;28;20623;-87
2023/06/26 01:40:46;;;;;;;12.43;7.80;;;18.10;99.90;;;;;;5074435;28;20220;-88
2023/06/26 01:43:27;;;;;;;10.23;7.57;;;18.40;99.90;;;;;;5075258;28;20676;-88
2023/06/26 01:46:02;;;;;;;9.50;7.85;;;18.50;99.90;;;;;;5059794;28;20210;-88
2023/06/26 01:48:33;;;;;;;11.05;7.75;;;18.50;99.90;;;;;;5074873;28;20210;-88
2023/06/26 01:51:06;;;;;;;9.50;7.72;;;18.60;99.90;;;;;;5074492;28;20198;-87
2023/06/26 01:53:40;;;;;;;9.80;7.38;;;18.50;99.90;;;;;;5074028;28;20260;-88
2023/06/26 01:56:16;;;;;;;7.72;6.85;;;18.50;99.90;;;;;;5074652;28;20230;-88
2023/06/26 01:58:54;;;;;;;8.35;6.85;;;18.40;99.90;;;;;;5074852;28;20190;-88
2023/06/26 02:01:33;;;;;;;10.05;6.80;;;18.50;99.90;;;;;;5073955;28;20289;-88
2023/06/26 02:04:11;;;;;;;10.98;7.22;;;18.50;99.90;;;;;;5074741;28;20198;-88
2023/06/26 02:06:47;;;;;;;9.48;7.30;;;18.40;99.90;;;;;;5074171;28;20313;-88
2023/06/26 02:09:25;;;;;;;9.07;7.45;;;18.40;99.90;;;;;;5069505;28;20214;-87
2023/06/26 02:12:05;;;;;;;12.35;7.18;;;18.40;99.90;;;;;;5073941;28;20293;-88
2023/06/26 02:14:40;;;;;;;10.38;6.90;;;18.40;99.90;;;;;;5074058;28;20194;-87
2023/06/26 02:17:08;;;;;;;7.68;6.90;;;18.40;99.90;;;;;;5074324;28;20209;-88
2023/06/26 02:19:47;;;;;;;8.48;6.97;;;18.40;99.90;;;;;;5074527;28;20281;-88
2023/06/26 02:22:14;;;;;;;10.57;7.38;;;18.30;99.90;;;;;;5072074;28;20556;-87
2023/06/26 02:24:42;;;;;;;10.27;7.53;;;18.20;99.90;;;;;;5073996;28;21509;-87
2023/06/26 02:27:09;;;;;;;9.80;7.10;;;18.30;99.90;;;;;;5074961;28;20208;-88
2023/06/26 02:29:49;;;;;;;9.13;6.85;;;18.10;99.90;;;;;;5073628;28;20313;-88
2023/06/26 02:32:18;;;;;;;13.70;9.15;;;18.10;99.90;;;;;;5074523;28;20281;-87
2023/06/26 02:43:39;;;;;;;9.75;7.43;;;18.30;99.90;;;;;;5072647;28;20264;-88
2023/06/26 02:53:24;;;;;;;12.52;7.55;;;18.10;99.90;;;;;;4978541;28;20239;-89
2023/06/26 02:56:00;;;;;;;10.60;7.15;;;17.80;99.90;;;;;;4992284;28;20229;-91
2023/06/26 02:58:29;;;;;;;8.43;7.13;;;17.90;99.90;;;;;;5051131;28;20256;-90
2023/06/26 03:01:13;;;;;;;8.88;6.78;;;18.00;99.90;;;;;;5065299;28;20260;-89
2023/06/26 03:03:49;;;;;;;8.50;6.35;;;18.30;99.90;;;;;;5071073;28;20274;-89
2023/06/26 03:06:16;;;;;;;8.43;7.10;;;18.10;99.90;;;;;;5072745;28;20235;-88
2023/06/26 03:08:54;;;;;;;8.55;6.43;;;18.10;99.90;;;;;;5056758;28;20590;-90
2023/06/26 03:11:23;;;;;;;8.02;6.32;;;18.00;99.90;;;;;;5053030;28;20211;-88
2023/06/26 03:17:03;;;;;;;9.60;6.85;;;18.20;99.90;;;;;;5063866;23;20716;-80
2023/06/26 03:19:30;;;;;;;9.02;6.30;;;18.30;99.90;;;;;;5052475;28;20267;-82
2023/06/26 03:21:57;;;;;;;7.75;6.78;;;18.40;99.90;;;;;;5042914;28;20653;-80
2023/06/26 03:24:25;;;;;;;9.18;6.43;;;18.50;99.90;;;;;;5052175;28;20206;-81
2023/06/26 03:26:52;;;;;;;8.65;6.35;;;18.60;99.90;;;;;;5045467;28;20211;-81
2023/06/26 03:29:19;;;;;;;11.68;6.20;;;18.60;99.90;;;;;;5049674;28;20269;-80
2023/06/26 03:31:45;;;;;;;18.15;13.52;;;18.60;99.90;;;;;;5046550;28;20232;-80
2023/06/26 03:34:12;;;;;;;11.43;8.20;;;18.60;99.90;;;;;;5050755;28;20214;-80
2023/06/26 03:36:39;;;;;;;10.95;7.22;;;18.50;99.90;;;;;;5043497;28;20226;-80
2023/06/26 03:39:06;;;;;;;10.60;7.25;;;18.70;99.90;;;;;;5037428;28;20196;-80
2023/06/26 03:41:34;;;;;;;8.55;6.97;;;18.80;99.90;;;;;;5041535;28;20281;-81
2023/06/26 03:44:01;;;;;;;8.57;6.28;;;18.70;99.90;;;;;;5037177;28;20199;-80
2023/06/26 03:46:28;;;;;;;7.00;6.28;;;18.80;99.90;;;;;;5037617;28;20207;-80
2023/06/26 03:48:55;;;;;;;8.07;5.93;;;18.70;99.90;;;;;;5045917;28;20222;-80
2023/06/26 03:51:22;;;;;;;9.55;6.13;;;18.90;99.90;;;;;;5045607;28;20230;-80
2023/06/26 03:53:49;;;;;;;7.82;5.45;;;18.90;99.90;;;;;;5053617;28;20213;-80
2023/06/26 03:56:15;;;;;;;7.90;6.18;;;19.10;99.90;;;;;;5042252;28;20215;-81
2023/06/26 03:58:43;;;;;;;7.43;5.78;;;19.20;99.90;;;;;;5046922;28;20208;-80
2023/06/26 04:01:10;;;;;;;7.38;6.22;;;19.40;99.90;;;;;;5053507;28;20226;-80
2023/06/26 04:03:37;;;;;;;8.65;5.85;;;19.30;99.90;;;;;;5054139;28;20199;-80
2023/06/26 04:06:04;;;;;;;7.55;5.38;;;19.30;99.90;;;;;;5045876;28;20199;-80
2023/06/26 04:08:31;;;;;;;7.63;6.00;;;19.50;99.90;;;;;;5052384;28;20307;-81
2023/06/26 04:10:58;;;;;;;8.40;5.88;;;19.60;99.90;;;;;;5042006;28;20232;-80
2023/06/26 04:13:25;;;;;;;7.30;5.65;;;19.70;99.90;;;;;;5049748;28;20203;-80
2023/06/26 04:15:53;;;;;;;8.48;5.72;;;21.40;99.90;;;;;;5049334;28;20214;-80
2023/06/26 04:18:21;;;;;;;8.95;6.28;;;22.60;99.90;;;;;;5053139;28;20204;-81
2023/06/26 04:21:06;;;;;;;9.20;6.07;;;23.20;99.90;;;;;;5038017;28;20254;-81
2023/06/26 04:23:33;;;;;;;6.72;5.45;;;23.50;99.90;;;;;;5053086;28;20203;-80
2023/06/26 04:26:00;;;;;;;6.65;5.25;;;23.70;99.90;;;;;;5045996;28;20592;-81
2023/06/26 04:28:27;;;;;;;7.07;5.38;;;22.50;99.90;;;;;;5037554;28;20204;-81
2023/06/26 04:30:55;;;;;;;7.70;6.13;;;21.70;99.90;;;;;;5038480;28;20306;-81
2023/06/26 04:33:22;;;;;;;8.45;5.60;;;21.20;99.90;;;;;;5048349;28;20208;-81
2023/06/26 04:35:49;;;;;;;7.72;5.57;;;21.10;99.90;;;;;;5048513;28;20604;-80
2023/06/26 04:38:16;;;;;;;7.25;5.20;;;21.10;99.90;;;;;;5049031;28;20217;-80
2023/06/26 04:40:43;;;;;;;9.27;6.25;;;21.10;99.90;;;;;;5040460;28;20231;-80
2023/06/26 04:43:09;;;;;;;7.45;5.20;;;21.30;99.90;;;;;;5040467;28;20694;-80
2023/06/26 04:45:36;;;;;;;6.30;5.32;;;21.40;99.90;;;;;;5048776;28;20203;-81
2023/06/26 04:48:05;;;;;;;7.00;5.35;;;21.50;99.90;;;;;;5046452;28;20217;-81
2023/06/26 04:50:33;;;;;;;7.88;5.72;;;21.40;99.90;;;;;;5050787;28;20335;-81
2023/06/26 04:53:00;;;;;;;7.60;5.35;;;21.30;99.90;;;;;;5047831;28;20726;-80
2023/06/26 04:55:28;;;;;;;7.22;5.07;;;21.60;99.90;;;;;;5046401;28;20203;-81
2023/06/26 04:57:54;;;;;;;8.82;5.45;;;21.80;99.90;;;;;;5046982;28;20290;-81
2023/06/26 05:00:22;;;;;;;8.27;5.55;;;22.10;99.90;;;;;;5034553;28;20223;-80
2023/06/26 05:02:49;;;;;;;8.70;5.40;;;21.90;99.90;;;;;;5036863;28;20215;-80
2023/06/26 05:05:17;;;;;;;6.72;4.97;;;21.90;99.90;;;;;;5037324;28;20211;-81
2023/06/26 05:07:44;;;;;;;7.22;5.50;;;22.00;99.90;;;;;;5037451;28;20199;-81
2023/06/26 05:10:11;;;;;;;7.90;6.05;;;22.10;99.90;;;;;;5036622;28;20214;-82
2023/06/26 05:12:38;;;;;;;7.07;5.85;;;21.90;99.90;;;;;;5048311;28;20569;-81
2023/06/26 05:15:05;;;;;;;7.25;5.75;;;22.00;99.90;;;;;;5038567;28;20212;-81
2023/06/26 05:17:32;;;;;;;7.10;5.95;;;22.10;99.90;;;;;;5048243;28;20213;-81
2023/06/26 05:19:59;;;;;;;7.05;5.70;;;22.10;99.90;;;;;;5047580;28;20206;-81
2023/06/26 05:22:27;;;;;;;8.60;5.95;;;22.30;99.90;;;;;;5043056;28;20223;-81
2023/06/26 05:24:56;;;;;;;6.32;5.13;;;22.10;99.90;;;;;;5043441;28;20199;-82
2023/06/26 05:27:23;;;;;;;8.57;6.35;;;22.30;99.90;;;;;;5044506;28;20290;-80
2023/06/26 05:29:51;;;;;;;6.40;5.15;;;22.60;99.90;;;;;;5043756;28;20224;-80
2023/06/26 05:32:18;;;;;;;7.10;5.57;;;22.90;99.90;;;;;;5042230;28;20237;-81
2023/06/26 05:34:48;;;;;;;6.97;5.10;;;22.80;99.90;;;;;;5043357;28;20583;-81
2023/06/26 05:37:18;;;;;;;6.32;5.18;;;23.00;99.90;;;;;;5036404;28;20215;-81
2023/06/26 05:39:46;;;;;;;7.13;5.25;;;23.00;99.90;;;;;;5043210;28;20286;-81
2023/06/26 05:42:14;;;;;;;7.60;5.28;;;23.20;99.90;;;;;;5036491;28;20255;-81
2023/06/26 05:44:41;;;;;;;6.47;4.82;;;23.10;99.90;;;;;;5043629;28;20203;-81
2023/06/26 05:47:08;;;;;;;6.82;5.20;;;23.30;99.90;;;;;;5046761;28;20285;-81
2023/06/26 05:49:35;;;;;;;8.02;5.80;;;23.50;99.90;;;;;;5049384;28;20250;-81
2023/06/26 05:52:02;;;;;;;5.97;5.18;;;23.50;99.90;;;;;;5046438;28;20225;-81
2023/06/26 05:54:30;;;;;;;7.32;5.22;;;23.50;99.90;;;;;;5046921;28;20624;-81
2023/06/26 05:56:59;;;;;;;6.70;5.00;;;23.60;99.90;;;;;;5045881;28;20715;-81
2023/06/26 05:59:27;;;;;;;5.97;5.20;;;23.50;99.90;;;;;;5040880;28;20202;-81
2023/06/26 06:01:54;;;;;;;7.20;5.68;;;23.40;99.90;;;;;;5047402;28;20599;-81
2023/06/26 06:04:21;;;;;;;6.28;5.63;;;23.40;99.90;;;;;;5047084;28;20576;-81
2023/06/26 06:06:48;;;;;;;8.35;4.85;;;23.70;99.90;;;;;;5047450;28;20286;-81
2023/06/26 06:09:14;;;;;;;5.30;4.80;;;23.60;99.90;;;;;;5043880;28;20311;-81
2023/06/26 06:11:42;;;;;;;5.97;5.13;;;23.70;99.90;;;;;;5042405;28;20223;-81
2023/06/26 06:14:10;;;;;;;7.18;5.65;;;24.00;99.90;;;;;;5038382;28;20206;-81
2023/06/26 06:16:37;;;;;;;6.05;5.40;;;24.10;99.90;;;;;;5046963;28;20202;-80
2023/06/26 06:19:06;;;;;;;6.20;5.60;;;24.00;99.90;;;;;;5043867;28;20202;-81
2023/06/26 06:21:33;;;;;;;7.03;5.53;;;24.20;99.90;;;;;;5043030;28;20230;-81
2023/06/26 06:24:01;;;;;;;5.80;5.20;;;24.00;99.90;;;;;;5045022;28;20207;-81
2023/06/26 06:26:27;;;;;;;5.88;4.95;;;24.00;99.90;;;;;;5047103;28;20348;-81
2023/06/26 06:28:54;;;;;;;6.05;4.97;;;24.00;99.90;;;;;;5046348;28;20690;-79
2023/06/26 06:31:22;;;;;;;7.15;5.30;;;24.10;99.90;;;;;;5042138;28;20317;-79
2023/06/26 06:33:49;;;;;;;5.60;5.00;;;24.10;99.90;;;;;;5042728;28;20288;-79
2023/06/26 06:36:16;;;;;;;8.48;5.57;;;24.10;99.90;;;;;;5045366;28;20203;-79
2023/06/26 06:38:44;;;;;;;8.63;5.10;;;24.00;99.90;;;;;;5045683;28;20203;-79
2023/06/26 06:41:11;;;;;;;6.90;5.70;;;24.20;99.90;;;;;;5043166;28;20556;-79
2023/06/26 06:43:38;;;;;;;6.03;5.35;;;24.30;99.90;;;;;;5039702;28;20663;-79
2023/06/26 06:46:05;;;;;;;7.50;5.28;;;24.30;99.90;;;;;;5029434;28;20603;-79
2023/06/26 06:48:33;;;;;;;6.28;5.00;;;24.30;99.90;;;;;;5036279;28;20230;-79
2023/06/26 06:51:00;;;;;;;6.53;5.82;;;24.40;99.90;;;;;;5037451;28;20725;-79
2023/06/26 06:53:27;;;;;;;6.03;5.43;;;24.40;99.90;;;;;;5036682;28;20207;-79
2023/06/26 06:55:53;;;;;;;9.07;5.63;;;24.50;99.90;;;;;;5036857;28;20208;-79
2023/06/26 06:58:21;;;;;;;11.35;6.28;;;24.60;99.90;;;;;;5041536;28;20213;-79
2023/06/26 07:00:47;;;;;;;11.25;5.80;;;24.70;99.90;;;;;;5031049;28;20242;-81
2023/06/26 07:03:14;;;;;;;8.57;5.38;;;24.70;99.90;;;;;;5045781;28;20560;-78
2023/06/26 07:05:43;;;;;;;7.30;5.75;;;24.80;99.90;;;;;;5040794;28;20210;-79
2023/06/26 07:08:10;;;;;;;9.73;6.07;;;24.70;99.90;;;;;;5037668;28;20208;-79
2023/06/26 07:10:37;;;;;;;7.07;5.70;;;24.70;99.90;;;;;;5044129;28;20683;-79
2023/06/26 07:13:03;;;;;;;8.07;6.00;;;24.70;99.90;;;;;;5048980;28;20211;-79
2023/06/26 07:15:32;;;;;;;7.65;5.88;;;24.70;99.90;;;;;;5043296;28;20211;-78
2023/06/26 07:17:59;;;;;;;6.28;5.60;;;24.70;99.90;;;;;;5045404;28;20207;-81
2023/06/26 07:20:26;;;;;;;6.72;5.70;;;24.80;99.90;;;;;;5046969;28;20219;-79
2023/06/26 07:22:54;;;;;;;8.98;6.18;;;24.70;99.90;;;;;;5046261;28;20209;-81
2023/06/26 07:25:21;;;;;;;9.93;5.93;;;24.80;99.90;;;;;;5038213;28;20200;-81
2023/06/26 07:27:48;;;;;;;6.65;5.35;;;24.70;99.90;;;;;;5053226;28;20291;-81
2023/06/26 07:30:14;;;;;;;7.35;5.90;;;24.80;99.90;;;;;;5054964;28;20234;-79
2023/06/26 07:32:42;;;;;;;10.57;5.40;;;24.80;99.90;;;;;;5047096;28;20203;-81
2023/06/26 07:35:09;;;;;;;7.00;5.50;;;24.80;99.90;;;;;;5042584;28;20211;-80
2023/06/26 07:37:35;;;;;;;7.43;5.55;;;24.80;99.90;;;;;;5052930;28;20234;-81
2023/06/26 07:40:05;;;;;;;7.57;6.00;;;24.90;99.90;;;;;;5047195;28;20406;-79
2023/06/26 07:42:31;;;;;;;7.05;5.97;;;25.00;99.90;;;;;;5049875;28;20681;-79
2023/06/26 07:44:58;;;;;;;6.75;5.63;;;25.00;99.90;;;;;;5039981;28;20203;-79
2023/06/26 07:47:25;;;;;;;6.72;5.95;;;25.00;99.90;;;;;;5037233;28;20203;-81
2023/06/26 07:49:52;;;;;;;9.93;6.00;;;25.10;99.90;;;;;;5043382;28;20220;-78
2023/06/26 07:52:20;;;;;;;8.27;6.50;;;25.10;99.90;;;;;;5036884;28;20223;-79
2023/06/26 07:54:46;;;;;;;10.15;6.00;;;25.20;99.90;;;;;;5043221;28;20663;-78
2023/06/26 07:57:15;;;;;;;6.28;5.35;;;25.20;99.90;;;;;;5048189;28;20199;-79
2023/06/26 07:59:41;;;;;;;7.85;6.20;;;25.30;99.90;;;;;;5043314;28;20208;-79
2023/06/26 08:02:08;;;;;;;8.45;6.50;;;25.20;99.90;;;;;;5045223;28;20219;-79
2023/06/26 08:04:35;;;;;;;7.53;5.78;;;25.40;99.90;;;;;;5046132;28;20552;-78
2023/06/26 08:07:03;;;;;;;9.18;6.10;;;25.50;99.90;;;;;;5052877;28;20199;-79
2023/06/26 08:09:31;;;;;;;7.35;6.60;;;25.50;99.90;;;;;;5040771;28;20663;-79
2023/06/26 08:11:58;;;;;;;7.25;6.18;;;25.50;99.90;;;;;;5039833;28;20220;-79
2023/06/26 08:14:26;;;;;;;7.68;6.18;;;25.70;99.90;;;;;;5049545;28;20206;-79
2023/06/26 08:16:53;;;;;;;7.90;6.28;;;25.60;99.90;;;;;;5039926;28;20708;-78
2023/06/26 08:19:20;;;;;;;8.15;6.38;;;25.70;99.90;;;;;;5036532;28;20525;-79
2023/06/26 08:21:48;;;;;;;7.43;6.15;;;25.80;99.90;;;;;;5051608;28;20219;-79
2023/06/26 08:24:16;;;;;;;8.25;6.60;;;25.70;99.90;;;;;;5045093;28;20206;-80
2023/06/26 08:26:43;;;;;;;9.43;6.35;;;25.80;99.90;;;;;;5036017;28;20207;-80
2023/06/26 08:29:10;;;;;;;7.75;6.05;;;25.80;99.90;;;;;;5037090;28;20206;-79
2023/06/26 08:31:38;;;;;;;8.45;6.53;;;25.90;99.90;;;;;;5048081;28;20223;-80
2023/06/26 08:34:05;;;;;;;7.72;6.07;;;26.00;99.90;;;;;;5038967;28;20199;-80
2023/06/26 08:36:33;;;;;;;7.18;6.47;;;26.00;99.90;;;;;;5050778;28;20195;-79
2023/06/26 08:38:59;;;;;;;8.80;6.57;;;26.00;99.90;;;;;;5044482;28;20207;-80
2023/06/26 08:41:26;;;;;;;8.43;6.97;;;26.00;99.90;;;;;;5047350;28;20226;-80
2023/06/26 08:43:53;;;;;;;7.03;6.32;;;26.20;99.90;;;;;;5045671;28;20217;-80
2023/06/26 08:46:21;;;;;;;8.82;6.45;;;26.20;99.90;;;;;;5036482;28;20205;-78
2023/06/26 08:48:56;;;;;;;7.40;6.60;;;26.30;99.90;;;;;;5045278;28;20202;-79
2023/06/26 08:51:25;;;;;;;9.30;6.70;;;26.60;99.90;;;;;;5047362;28;20728;-79
2023/06/26 08:53:58;;;;;;;8.85;6.65;;;26.90;99.90;;;;;;5039941;28;20549;-78
2023/06/26 08:56:26;;;;;;;7.57;6.65;;;26.80;99.90;;;;;;5031194;28;20218;-79
2023/06/26 08:58:53;;;;;;;8.45;6.50;;;26.80;99.90;;;;;;5056492;28;20686;-79
2023/06/26 09:01:20;;;;;;;8.30;6.93;;;27.10;99.90;;;;;;5036239;28;20227;-80
2023/06/26 09:03:47;;;;;;;8.40;6.68;;;27.30;99.90;;;;;;5036771;28;20200;-80
2023/06/26 09:06:15;;;;;;;7.30;6.60;;;27.80;99.90;;;;;;5035923;28;20214;-80
2023/06/26 09:08:42;;;;;;;8.32;6.85;;;27.70;99.90;;;;;;5030309;28;20203;-79
2023/06/26 09:11:09;;;;;;;8.52;7.13;;;28.00;99.90;;;;;;5036068;28;20233;-80
2023/06/26 09:13:36;;;;;;;10.52;7.63;;;28.00;99.90;;;;;;5050333;28;20591;-79
2023/06/26 09:16:07;;;;;;;7.75;6.75;;;28.30;99.90;;;;;;5043801;28;20213;-80
2023/06/26 09:18:35;;;;;;;10.32;7.13;;;28.60;99.90;;;;;;5043738;28;20655;-80
2023/06/26 09:21:07;;;;;;;7.50;6.43;;;28.60;99.90;;;;;;5043651;28;20223;-80
2023/06/26 09:23:36;;;;;;;8.77;6.95;;;28.40;99.90;;;;;;5047957;28;20210;-79
2023/06/26 09:26:04;;;;;;;7.40;6.65;;;28.40;99.90;;;;;;5038122;28;20214;-80
2023/06/26 09:28:31;;;;;;;8.15;7.18;;;29.00;99.90;;;;;;5050579;28;20258;-80
2023/06/26 09:31:02;;;;;;;10.88;8.27;;;28.90;99.90;;;;;;5035309;28;20223;-79
2023/06/26 09:33:33;;;;;;;9.75;7.32;;;29.20;99.90;;;;;;5038782;28;20580;-79
2023/06/26 09:36:00;;;;;;;8.40;7.50;;;29.10;99.90;;;;;;5039834;28;20694;-80
2023/06/26 09:38:27;;;;;;;8.32;7.43;;;29.20;99.90;;;;;;5046430;28;20206;-79
2023/06/26 09:40:56;;;;;;;9.23;7.32;;;28.80;99.90;;;;;;5040179;28;20219;-79
2023/06/26 09:43:24;;;;;;;10.60;7.72;;;29.00;99.90;;;;;;5035146;28;20422;-80
2023/06/26 09:45:50;;;;;;;9.60;7.50;;;29.10;99.90;;;;;;5042078;28;20199;-79
2023/06/26 09:48:18;;;;;;;11.82;8.40;;;28.80;99.90;;;;;;5044064;28;20669;-79
2023/06/26 09:50:44;;;;;;;9.25;7.93;;;28.90;99.90;;;;;;5041270;28;20265;-79
2023/06/26 09:53:13;;;;;;;11.32;7.80;;;28.60;99.90;;;;;;5045342;28;20210;-79
2023/06/26 09:55:43;;;;;;;10.02;7.40;;;28.40;99.90;;;;;;5040521;28;20580;-79
2023/06/26 09:58:14;;;;;;;10.35;7.80;;;28.80;99.90;;;;;;5044746;28;20652;-79
2023/06/26 10:00:42;;;;;;;8.35;7.07;;;28.60;99.90;;;;;;5049624;28;20246;-79
2023/06/26 10:03:08;;;;;;;9.10;7.28;;;28.10;99.90;;;;;;5044391;28;20203;-78
2023/06/26 10:05:35;;;;;;;11.38;6.50;;;27.80;99.90;;;;;;5045733;28;20199;-78
2023/06/26 10:08:05;;;;;;;11.70;6.30;;;27.40;99.90;;;;;;5046428;28;20597;-80
2023/06/26 10:10:34;;;;;;;9.05;6.20;;;27.00;99.90;;;;;;5046731;28;20231;-80
2023/06/26 10:13:05;;;;;;;7.53;6.15;;;27.00;99.90;;;;;;5042756;28;20393;-80
2023/06/26 10:15:34;;;;;;;8.77;6.82;;;27.10;99.90;;;;;;5028736;28;20214;-79
2023/06/26 10:18:01;;;;;;;8.45;6.80;;;26.60;99.90;;;;;;5034783;28;20206;-80
2023/06/26 10:20:28;;;;;;;7.85;6.65;;;26.70;99.90;;;;;;5045969;28;20219;-80
2023/06/26 10:22:58;;;;;;;11.00;7.18;;;26.60;99.90;;;;;;5049136;28;20627;-79
2023/06/26 10:25:26;;;;;;;12.45;7.07;;;26.30;99.90;;;;;;5046037;28;20210;-78
2023/06/26 10:27:56;;;;;;;10.90;8.23;;;26.10;99.90;;;;;;5041699;28;20214;-79
2023/06/26 10:30:27;;;;;;;10.63;8.18;;;26.00;99.90;;;;;;5037260;28;20644;-80
2023/06/26 10:32:56;;;;;;;11.95;8.38;;;26.20;99.90;;;;;;5046157;28;20203;-80
2023/06/26 10:35:24;;;;;;;11.25;7.78;;;26.60;99.90;;;;;;5047739;28;20214;-82
2023/06/26 10:37:52;;;;;;;15.57;8.82;;;27.40;99.90;;;;;;5053569;28;20210;-79
2023/06/26 10:40:25;;;;;;;10.10;8.52;;;27.60;99.90;;;;;;5039297;28;20220;-79
2023/06/26 10:43:05;;;;;;;11.15;8.55;;;27.50;99.90;;;;;;5054182;28;20198;-80
2023/06/26 10:45:34;;;;;;;11.00;8.32;;;27.00;99.90;;;;;;5039012;28;20214;-80
2023/06/26 10:48:04;;;;;;;13.52;9.05;;;26.80;99.90;;;;;;5046441;28;20207;-80
2023/06/26 10:50:32;;;;;;;13.10;9.57;;;26.40;99.90;;;;;;5051368;28;20570;-80
2023/06/26 10:53:24;;;;;;;15.15;9.88;;;25.90;99.90;;;;;;5045959;28;20576;-79
2023/06/26 10:55:56;;;;;;;13.45;10.25;;;24.90;99.90;;;;;;5038300;28;20631;-79
2023/06/26 10:58:41;;;;;;;14.50;9.93;;;24.10;99.90;;;;;;5040648;28;20208;-79
2023/06/26 11:01:22;;;;;;;12.65;8.95;;;23.90;99.90;;;;;;5046477;28;20592;-79
2023/06/26 11:04:02;;;;;;;11.13;8.32;;;23.70;99.90;;;;;;5036866;28;20203;-78
2023/06/26 11:06:29;;;;;;;12.07;7.57;;;23.70;99.90;;;;;;5036651;28;20612;-80
2023/06/26 11:09:01;;;;;;;10.90;6.93;;;23.60;99.90;;;;;;5039324;28;20214;-79
2023/06/26 11:12:01;;;;;;;9.35;7.07;;;23.90;99.90;;;;;;5041122;28;20230;-79
2023/06/26 11:14:29;;;;;;;13.38;7.50;;;24.10;99.90;;;;;;5052028;28;20253;-79
2023/06/26 11:16:57;;;;;;;11.10;6.57;;;24.40;99.90;;;;;;5046566;28;20222;-80
2023/06/26 11:19:28;;;;;;;12.57;7.88;;;24.40;99.90;;;;;;5057850;28;20268;-79
2023/06/26 11:22:00;;;;;;;10.93;7.38;;;24.20;99.90;;;;;;5056206;28;20215;-78
2023/06/26 11:24:27;;;;;;;12.63;7.57;;;24.00;99.90;;;;;;5050497;28;20199;-79
2023/06/26 11:26:54;;;;;;;10.65;7.30;;;23.70;99.90;;;;;;5049040;28;20290;-79
2023/06/26 11:29:21;;;;;;;15.90;9.13;;;23.90;99.90;;;;;;5053044;28;20246;-78
2023/06/26 11:31:48;;;;;;;14.32;8.50;;;24.00;99.90;;;;;;5048586;28;20254;-79
2023/06/26 11:34:15;;;;;;;13.15;7.70;;;24.10;99.90;;;;;;5052200;28;20217;-80
2023/06/26 11:36:46;;;;;;;8.88;7.13;;;24.10;99.90;;;;;;5051722;28;20199;-79
2023/06/26 11:39:13;;;;;;;11.98;7.63;;;24.30;99.90;;;;;;5051506;28;20250;-79
2023/06/26 11:41:41;;;;;;;11.88;7.95;;;24.10;99.90;;;;;;5048979;28;20222;-79
2023/06/26 11:44:09;;;;;;;11.05;8.43;;;24.20;99.90;;;;;;5055255;28;20203;-79
2023/06/26 11:46:37;;;;;;;12.88;8.57;;;24.00;99.90;;;;;;5047019;28;20200;-80
2023/06/26 11:49:05;;;;;;;10.85;8.02;;;24.00;99.90;;;;;;5047016;28;20663;-79
2023/06/26 11:51:32;;;;;;;13.45;8.75;;;24.00;99.90;;;;;;5055153;28;20219;-78
2023/06/26 11:54:03;;;;;;;11.32;7.85;;;23.70;99.90;;;;;;5046674;28;20199;-79
2023/06/26 11:56:31;;;;;;;11.48;7.53;;;24.00;99.90;;;;;;5045154;28;20208;-79
2023/06/26 11:59:00;;;;;;;14.02;9.52;;;24.20;99.90;;;;;;5045759;28;20203;-80
2023/06/26 12:01:28;;;;;;;9.35;7.65;;;24.40;99.90;;;;;;5054714;28;20752;-79
2023/06/26 12:04:01;;;;;;;12.48;8.18;;;24.80;99.90;;;;;;5046589;28;20229;-77
2023/06/26 12:06:28;;;;;;;12.05;9.45;;;24.70;99.90;;;;;;5047303;28;20215;-79
2023/06/26 12:08:55;;;;;;;12.13;9.40;;;24.70;99.90;;;;;;5049744;28;20264;-79
2023/06/26 12:11:25;;;;;;;12.98;8.77;;;24.90;99.90;;;;;;5048360;28;20587;-79
2023/06/26 12:13:52;;;;;;;13.85;8.50;;;25.00;99.90;;;;;;5046952;28;20639;-79
2023/06/26 12:16:20;;;;;;;11.70;8.75;;;25.10;99.90;;;;;;5045189;28;20213;-78
2023/06/26 12:18:47;;;;;;;12.25;9.38;;;24.80;99.90;;;;;;5040406;28;20291;-80
2023/06/26 12:21:29;;;;;;;12.18;10.55;;;24.60;99.90;;;;;;5045086;28;20290;-79
2023/06/26 12:24:00;;;;;;;12.80;10.80;;;24.30;99.90;;;;;;5037932;28;20225;-79
2023/06/26 12:26:28;;;;;;;13.75;10.50;;;24.40;99.90;;;;;;5041678;28;20668;-78
2023/06/26 12:29:03;;;;;;;11.80;8.88;;;25.00;99.90;;;;;;5044181;28;20206;-79
2023/06/26 12:31:30;;;;;;;12.48;7.60;;;25.70;99.90;;;;;;5052361;28;20257;-79
2023/06/26 12:33:56;;;;;;;8.10;6.03;;;26.30;99.90;;;;;;5053751;28;20207;-80
2023/06/26 12:36:24;;;;;;;8.82;5.15;;;26.00;99.90;;;;;;5048168;28;20203;-80
2023/06/26 12:38:51;;;;;;;7.55;5.10;;;25.50;99.90;;;;;;5048454;28;20668;-79
2023/06/26 12:41:20;;;;;;;8.40;4.90;;;25.20;99.90;;;;;;5047369;28;20221;-79
2023/06/26 12:43:48;;;;;;;9.10;5.00;;;25.00;99.90;;;;;;5047896;28;20611;-79
2023/06/26 12:46:14;;;;;;;7.45;4.82;;;25.30;99.90;;;;;;5047401;28;20226;-80
2023/06/26 12:48:46;;;;;;;4.85;4.38;;;25.60;99.90;;;;;;5051988;28;20209;-80
2023/06/26 12:51:17;;;;;;;5.60;4.40;;;25.70;99.90;;;;;;5042934;28;20224;-79
2023/06/26 12:53:44;;;;;;;7.15;4.32;;;25.60;99.90;;;;;;5050228;28;20659;-80
2023/06/26 12:56:11;;;;;;;6.43;4.20;;;25.10;99.90;;;;;;5049767;28;20203;-79
2023/06/26 12:58:39;;;;;;;5.32;4.32;;;24.70;99.90;;;;;;5045886;28;20203;-79
2023/06/26 13:01:14;;;;;;;6.28;4.00;;;24.90;99.90;;;;;;5051343;28;20219;-79
2023/06/26 13:03:41;;;;;;;6.00;4.13;;;24.70;99.90;;;;;;5024430;28;20223;-78
2023/06/26 13:06:08;;;;;;;7.50;4.80;;;25.10;99.90;;;;;;5038592;28;20316;-79
2023/06/26 13:08:35;;;;;;;6.63;4.22;;;25.30;99.90;;;;;;5050967;28;20206;-78
2023/06/26 13:11:02;;;;;;;6.68;4.03;;;25.30;99.90;;;;;;5050612;28;20231;-80
2023/06/26 13:13:29;;;;;;;8.20;4.05;;;25.40;99.90;;;;;;5049934;28;20200;-80
2023/06/26 13:15:55;;;;;;;6.63;3.78;;;25.50;99.90;;;;;;5040164;28;20203;-80
2023/06/26 13:18:24;;;;;;;4.78;3.53;;;25.80;99.90;;;;;;5047796;28;20231;-78
2023/06/26 13:20:50;;;;;;;6.35;4.07;;;26.00;99.90;;;;;;5049818;28;20231;-79
2023/06/26 13:23:18;;;;;;;4.68;4.00;;;25.90;99.90;;;;;;5041728;28;20214;-79